LYBE/BEG METAR and TAF weather

Enter ICAO airport designator
Station Type Date Time Source
LYBE METAR 2019/10/15 21:00 UTC NOAA

LYBE 152100Z 12005KT 8000 NSC 14/11 Q1014 NOSIG


Station Type Date Time Source
LYBE Decoded METAR 2019/10/15 21:00 UTC NOAA

Beograd / Surcin, Serbia and Montenegro (LYBE) 44-49N 020-17E 99M
Oct 15, 2019 - 05:00 PM EDT / 2019.10.15 2100 UTC
Wind: from the ESE (120 degrees) at 6 MPH (5 KT):0
Visibility: 4 mile(s):0
Temperature: 57 F (14 C)
Dew Point: 51 F (11 C)
Relative Humidity: 82%
Pressure (altimeter): 29.94 in. Hg (1014 hPa)
ob: LYBE 152100Z 12005KT 8000 NSC 14/11 Q1014 NOSIG
cycle: 21

Station Type Date Time Source
LYBE TAF 2019/10/15 18:21 UTC NOAA

TAF TAF LYBE 151700Z 1518/1618 20005KT CAVOK TX28/1613Z TN12/1604Z
BECMG 1600/1602 2000 BR
BECMG 1602/1604 0600 FG
TEMPO 1604/1606 0300
BECMG 1606/1608 CAVOK

Example: see airport list